sensor_id;sensor_type;location;lat;lon;timestamp;pressure;altitude;pressure_sealevel;temperature;humidity
51359;BME280;37448;51.588;7.248;2023-05-23T00:00:51;100979.25;;;15.12;88.63
51359;BME280;37448;51.588;7.248;2023-05-23T00:02:51;100977.66;;;15.07;88.34
51359;BME280;37448;51.588;7.248;2023-05-23T00:04:52;100979.25;;;15.12;89.47
51359;BME280;37448;51.588;7.248;2023-05-23T00:06:57;100977.69;;;15.06;88.79
51359;BME280;37448;51.588;7.248;2023-05-23T00:08:58;100988.72;;;15.17;90.49
51359;BME280;37448;51.588;7.248;2023-05-23T00:10:58;100990.84;;;15.06;88.80
51359;BME280;37448;51.588;7.248;2023-05-23T00:12:58;100990.03;;;15.04;88.12
51359;BME280;37448;51.588;7.248;2023-05-23T00:14:59;100993.22;;;15.14;90.27
51359;BME280;37448;51.588;7.248;2023-05-23T00:16:59;100994.31;;;15.08;89.25
51359;BME280;37448;51.588;7.248;2023-05-23T00:19:04;101004.59;;;15.14;89.63
51359;BME280;37448;51.588;7.248;2023-05-23T00:21:04;100996.44;;;14.97;87.43
51359;BME280;37448;51.588;7.248;2023-05-23T00:23:05;101001.59;;;15.00;88.26
51359;BME280;37448;51.588;7.248;2023-05-23T00:25:10;101005.78;;;15.05;89.03
51359;BME280;37448;51.588;7.248;2023-05-23T00:27:10;100999.66;;;15.05;88.69
51359;BME280;37448;51.588;7.248;2023-05-23T00:29:11;101004.19;;;15.01;88.07
51359;BME280;37448;51.588;7.248;2023-05-23T00:31:17;101005.34;;;14.92;87.42
51359;BME280;37448;51.588;7.248;2023-05-23T00:33:18;101012.63;;;14.84;86.38
51359;BME280;37448;51.588;7.248;2023-05-23T00:35:21;101008.19;;;14.86;87.20
51359;BME280;37448;51.588;7.248;2023-05-23T00:37:23;101021.72;;;14.74;85.42
51359;BME280;37448;51.588;7.248;2023-05-23T00:39:23;101013.91;;;14.72;85.74
51359;BME280;37448;51.588;7.248;2023-05-23T00:41:23;101024.34;;;14.74;85.90
51359;BME280;37448;51.588;7.248;2023-05-23T00:43:26;101013.81;;;14.75;85.75
51359;BME280;37448;51.588;7.248;2023-05-23T00:45:26;101017.50;;;14.68;84.36
51359;BME280;37448;51.588;7.248;2023-05-23T00:47:27;101019.53;;;14.60;85.03
51359;BME280;37448;51.588;7.248;2023-05-23T00:49:27;101028.09;;;14.65;85.03
51359;BME280;37448;51.588;7.248;2023-05-23T00:51:29;101031.72;;;14.62;83.77
51359;BME280;37448;51.588;7.248;2023-05-23T00:53:30;101022.38;;;14.52;83.52
51359;BME280;37448;51.588;7.248;2023-05-23T00:55:31;101022.28;;;14.55;84.77
51359;BME280;37448;51.588;7.248;2023-05-23T00:57:31;101038.25;;;14.49;83.30
51359;BME280;37448;51.588;7.248;2023-05-23T00:59:34;101026.03;;;14.48;82.76
51359;BME280;37448;51.588;7.248;2023-05-23T01:01:36;101026.84;;;14.50;85.14
51359;BME280;37448;51.588;7.248;2023-05-23T01:03:36;101027.84;;;14.46;84.71
51359;BME280;37448;51.588;7.248;2023-05-23T01:05:38;101025.41;;;14.40;82.93
51359;BME280;37448;51.588;7.248;2023-05-23T01:07:39;101030.47;;;14.46;85.08
51359;BME280;37448;51.588;7.248;2023-05-23T01:09:40;101035.59;;;14.50;84.50
51359;BME280;37448;51.588;7.248;2023-05-23T01:11:51;101020.97;;;14.42;83.85
51359;BME280;37448;51.588;7.248;2023-05-23T01:13:59;101031.47;;;14.42;84.98
51359;BME280;37448;51.588;7.248;2023-05-23T01:16:06;101027.63;;;14.52;85.20
51359;BME280;37448;51.588;7.248;2023-05-23T01:18:11;101028.75;;;14.45;84.70
51359;BME280;37448;51.588;7.248;2023-05-23T01:20:44;101027.84;;;14.46;84.01
51359;BME280;37448;51.588;7.248;2023-05-23T01:27:53;101030.28;;;14.52;85.88
51359;BME280;37448;51.588;7.248;2023-05-23T01:30:00;101025.66;;;14.60;86.31
51359;BME280;37448;51.588;7.248;2023-05-23T01:32:04;101022.56;;;14.47;82.64
51359;BME280;37448;51.588;7.248;2023-05-23T01:34:06;101027.38;;;14.61;87.19
51359;BME280;37448;51.588;7.248;2023-05-23T01:36:07;101029.09;;;14.62;85.52
51359;BME280;37448;51.588;7.248;2023-05-23T01:38:08;101033.25;;;14.68;87.29
51359;BME280;37448;51.588;7.248;2023-05-23T01:40:09;101027.09;;;14.69;86.86
51359;BME280;37448;51.588;7.248;2023-05-23T01:42:10;101024.63;;;14.64;85.47
51359;BME280;37448;51.588;7.248;2023-05-23T01:44:11;101027.16;;;14.68;86.85
51359;BME280;37448;51.588;7.248;2023-05-23T01:46:12;101032.13;;;14.77;88.45
51359;BME280;37448;51.588;7.248;2023-05-23T01:48:14;101027.97;;;14.70;86.71
51359;BME280;37448;51.588;7.248;2023-05-23T01:50:15;101033.84;;;14.78;88.28
51359;BME280;37448;51.588;7.248;2023-05-23T01:52:16;101028.00;;;14.68;85.24
51359;BME280;37448;51.588;7.248;2023-05-23T01:54:17;101026.19;;;14.72;85.91
51359;BME280;37448;51.588;7.248;2023-05-23T01:56:19;101032.53;;;14.64;86.42
51359;BME280;37448;51.588;7.248;2023-05-23T01:58:20;101026.19;;;14.70;86.78
51359;BME280;37448;51.588;7.248;2023-05-23T02:00:21;101034.06;;;14.72;87.74
51359;BME280;37448;51.588;7.248;2023-05-23T02:02:21;101027.16;;;14.68;87.05
51359;BME280;37448;51.588;7.248;2023-05-23T02:04:22;101037.00;;;14.61;85.29
51359;BME280;37448;51.588;7.248;2023-05-23T02:06:23;101036.59;;;14.75;87.71
51359;BME280;37448;51.588;7.248;2023-05-23T02:08:23;101030.53;;;14.73;87.50
51359;BME280;37448;51.588;7.248;2023-05-23T02:10:24;101037.41;;;14.77;88.79
51359;BME280;37448;51.588;7.248;2023-05-23T02:12:24;101035.97;;;14.67;85.61
51359;BME280;37448;51.588;7.248;2023-05-23T02:14:24;101033.38;;;14.65;86.35
51359;BME280;37448;51.588;7.248;2023-05-23T02:16:27;101034.88;;;14.74;88.10
51359;BME280;37448;51.588;7.248;2023-05-23T02:18:28;101039.22;;;14.75;87.58
51359;BME280;37448;51.588;7.248;2023-05-23T02:20:29;101033.16;;;14.73;87.24
51359;BME280;37448;51.588;7.248;2023-05-23T02:22:29;101036.56;;;14.76;88.24
51359;BME280;37448;51.588;7.248;2023-05-23T02:24:29;101038.47;;;14.70;85.95
51359;BME280;37448;51.588;7.248;2023-05-23T02:26:30;101036.06;;;14.63;85.80
51359;BME280;37448;51.588;7.248;2023-05-23T02:28:30;101036.06;;;14.63;86.07
51359;BME280;37448;51.588;7.248;2023-05-23T02:30:31;101033.25;;;14.68;87.93
51359;BME280;37448;51.588;7.248;2023-05-23T02:32:31;101035.69;;;14.76;88.89
51359;BME280;37448;51.588;7.248;2023-05-23T02:34:31;101043.63;;;14.74;88.28
51359;BME280;37448;51.588;7.248;2023-05-23T02:36:32;101043.72;;;14.70;87.67
51359;BME280;37448;51.588;7.248;2023-05-23T02:38:33;101052.78;;;14.61;86.49
51359;BME280;37448;51.588;7.248;2023-05-23T02:40:33;101050.81;;;14.68;87.58
51359;BME280;37448;51.588;7.248;2023-05-23T02:42:35;101051.63;;;14.70;87.30
51359;BME280;37448;51.588;7.248;2023-05-23T02:44:35;101048.19;;;14.68;87.09
51359;BME280;37448;51.588;7.248;2023-05-23T02:46:36;101061.66;;;14.57;86.02
51359;BME280;37448;51.588;7.248;2023-05-23T02:48:37;101058.16;;;14.56;87.42
51359;BME280;37448;51.588;7.248;2023-05-23T02:50:37;101054.63;;;14.57;87.35
51359;BME280;37448;51.588;7.248;2023-05-23T02:52:38;101061.53;;;14.61;86.70
51359;BME280;37448;51.588;7.248;2023-05-23T02:54:38;101058.16;;;14.56;85.96
51359;BME280;37448;51.588;7.248;2023-05-23T02:56:39;101063.59;;;14.52;86.38
51359;BME280;37448;51.588;7.248;2023-05-23T02:58:39;101067.06;;;14.52;86.80
51359;BME280;37448;51.588;7.248;2023-05-23T03:00:40;101065.31;;;14.53;86.61
51359;BME280;37448;51.588;7.248;2023-05-23T03:02:42;101062.72;;;14.51;86.98
51359;BME280;37448;51.588;7.248;2023-05-23T03:04:43;101063.84;;;14.42;84.58
51359;BME280;37448;51.588;7.248;2023-05-23T03:06:43;101060.16;;;14.49;86.97
51359;BME280;37448;51.588;7.248;2023-05-23T03:08:44;101065.34;;;14.51;86.49
51359;BME280;37448;51.588;7.248;2023-05-23T03:10:44;101065.56;;;14.43;85.37
51359;BME280;37448;51.588;7.248;2023-05-23T03:12:45;101061.09;;;14.47;85.99
51359;BME280;37448;51.588;7.248;2023-05-23T03:14:48;101065.63;;;14.42;85.79
51359;BME280;37448;51.588;7.248;2023-05-23T03:16:48;101069.16;;;14.41;86.56
51359;BME280;37448;51.588;7.248;2023-05-23T03:18:49;101070.09;;;14.40;86.56
51359;BME280;37448;51.588;7.248;2023-05-23T03:20:50;101070.25;;;14.33;85.72
51359;BME280;37448;51.588;7.248;2023-05-23T03:22:50;101078.97;;;14.35;86.48
51359;BME280;37448;51.588;7.248;2023-05-23T03:24:51;101088.78;;;14.29;84.71
51359;BME280;37448;51.588;7.248;2023-05-23T03:26:51;101083.38;;;14.33;84.87
51359;BME280;37448;51.588;7.248;2023-05-23T03:28:51;101084.44;;;14.28;85.59
51359;BME280;37448;51.588;7.248;2023-05-23T03:30:53;101086.38;;;14.21;85.57
51359;BME280;37448;51.588;7.248;2023-05-23T03:32:53;101092.59;;;14.18;86.05
51359;BME280;37448;51.588;7.248;2023-05-23T03:34:54;101092.16;;;14.02;83.77
51359;BME280;37448;51.588;7.248;2023-05-23T03:36:55;101089.31;;;14.12;85.93
51359;BME280;37448;51.588;7.248;2023-05-23T03:38:55;101100.47;;;14.18;86.23
51359;BME280;37448;51.588;7.248;2023-05-23T03:40:56;101093.66;;;14.13;85.66
51359;BME280;37448;51.588;7.248;2023-05-23T03:43:03;101094.75;;;14.04;84.97
51359;BME280;37448;51.588;7.248;2023-05-23T03:45:05;101095.69;;;14.01;85.47
51359;BME280;37448;51.588;7.248;2023-05-23T03:47:06;101099.06;;;14.06;85.57
51359;BME280;37448;51.588;7.248;2023-05-23T03:49:08;101091.47;;;13.96;85.60
51359;BME280;37448;51.588;7.248;2023-05-23T03:51:09;101099.13;;;14.03;86.28
51359;BME280;37448;51.588;7.248;2023-05-23T03:53:10;101104.75;;;13.91;85.01
51359;BME280;37448;51.588;7.248;2023-05-23T03:55:11;101108.28;;;13.90;85.39
51359;BME280;37448;51.588;7.248;2023-05-23T03:57:12;101109.91;;;13.94;86.49
51359;BME280;37448;51.588;7.248;2023-05-23T03:59:13;101111.81;;;13.89;86.16
51359;BME280;37448;51.588;7.248;2023-05-23T04:01:14;101112.56;;;13.92;87.50
51359;BME280;37448;51.588;7.248;2023-05-23T04:03:15;101116.88;;;13.95;88.08
51359;BME280;37448;51.588;7.248;2023-05-23T04:05:16;101119.59;;;13.92;87.85
51359;BME280;37448;51.588;7.248;2023-05-23T04:07:17;101124.97;;;13.87;87.67
51359;BME280;37448;51.588;7.248;2023-05-23T04:09:18;101124.94;;;13.89;87.39
51359;BME280;37448;51.588;7.248;2023-05-23T04:11:20;101126.00;;;13.82;87.10
51359;BME280;37448;51.588;7.248;2023-05-23T04:13:21;101127.94;;;13.75;87.08
51359;BME280;37448;51.588;7.248;2023-05-23T04:15:24;101127.78;;;13.81;87.78
51359;BME280;37448;51.588;7.248;2023-05-23T04:17:36;101131.34;;;13.78;87.09
51359;BME280;37448;51.588;7.248;2023-05-23T04:19:38;101127.63;;;13.86;87.48
51359;BME280;37448;51.588;7.248;2023-05-23T04:21:39;101123.38;;;13.82;87.44
51359;BME280;37448;51.588;7.248;2023-05-23T04:23:42;101126.00;;;13.82;86.98
51359;BME280;37448;51.588;7.248;2023-05-23T04:25:42;101126.06;;;13.78;87.39
51359;BME280;37448;51.588;7.248;2023-05-23T04:27:53;101135.56;;;13.84;88.09
51359;BME280;37448;51.588;7.248;2023-05-23T04:29:56;101137.09;;;13.91;88.16
51359;BME280;37448;51.588;7.248;2023-05-23T04:31:57;101134.53;;;13.90;87.02
51359;BME280;37448;51.588;7.248;2023-05-23T04:33:58;101139.72;;;13.91;87.69
51359;BME280;37448;51.588;7.248;2023-05-23T04:35:58;101142.44;;;13.88;87.08
51359;BME280;37448;51.588;7.248;2023-05-23T04:37:59;101141.50;;;13.91;87.49
51359;BME280;37448;51.588;7.248;2023-05-23T04:40:02;101146.00;;;13.86;87.11
51359;BME280;37448;51.588;7.248;2023-05-23T04:42:14;101139.00;;;13.86;86.32
51359;BME280;37448;51.588;7.248;2023-05-23T04:44:22;101145.03;;;13.90;86.70
51359;BME280;37448;51.588;7.248;2023-05-23T04:46:35;101147.81;;;13.84;86.43
51359;BME280;37448;51.588;7.248;2023-05-23T04:48:49;101141.53;;;13.89;86.96
51359;BME280;37448;51.588;7.248;2023-05-23T04:50:50;101133.63;;;13.91;86.80
51359;BME280;37448;51.588;7.248;2023-05-23T04:52:51;101138.88;;;13.91;86.81
51359;BME280;37448;51.588;7.248;2023-05-23T04:54:52;101138.91;;;13.89;86.80
51359;BME280;37448;51.588;7.248;2023-05-23T04:56:53;101145.16;;;13.85;86.44
51359;BME280;37448;51.588;7.248;2023-05-23T04:58:54;101144.25;;;13.86;86.63
51359;BME280;37448;51.588;7.248;2023-05-23T05:00:55;101148.56;;;13.89;87.55
51359;BME280;37448;51.588;7.248;2023-05-23T05:02:56;101147.59;;;13.91;87.20
51359;BME280;37448;51.588;7.248;2023-05-23T05:05:02;101145.72;;;13.97;87.56
51359;BME280;37448;51.588;7.248;2023-05-23T05:07:03;101153.81;;;13.89;86.39
51359;BME280;37448;51.588;7.248;2023-05-23T05:09:03;101155.63;;;13.87;86.32
51359;BME280;37448;51.588;7.248;2023-05-23T05:11:04;101154.56;;;13.92;87.49
51359;BME280;37448;51.588;7.248;2023-05-23T05:13:05;101153.88;;;13.86;86.16
51359;BME280;37448;51.588;7.248;2023-05-23T05:15:18;101160.81;;;13.88;86.54
51359;BME280;37448;51.588;7.248;2023-05-23T05:17:21;101161.56;;;13.93;85.76
51359;BME280;37448;51.588;7.248;2023-05-23T05:19:34;101175.63;;;13.91;86.41
51359;BME280;37448;51.588;7.248;2023-05-23T05:21:35;101172.34;;;13.83;86.27
51359;BME280;37448;51.588;7.248;2023-05-23T05:23:36;101174.88;;;13.86;85.84
51359;BME280;37448;51.588;7.248;2023-05-23T05:25:36;101179.47;;;13.77;86.01
51359;BME280;37448;51.588;7.248;2023-05-23T05:27:38;101173.16;;;13.85;86.50
51359;BME280;37448;51.588;7.248;2023-05-23T05:29:40;101177.94;;;13.70;85.94
51359;BME280;37448;51.588;7.248;2023-05-23T05:31:41;101181.44;;;13.69;86.92
51359;BME280;37448;51.588;7.248;2023-05-23T05:33:44;101185.97;;;13.64;85.86
51359;BME280;37448;51.588;7.248;2023-05-23T05:35:47;101181.66;;;13.61;86.65
51359;BME280;37448;51.588;7.248;2023-05-23T05:37:47;101195.59;;;13.63;86.86
51359;BME280;37448;51.588;7.248;2023-05-23T05:39:48;101196.47;;;13.64;86.48
51359;BME280;37448;51.588;7.248;2023-05-23T05:41:48;101191.13;;;13.67;87.20
51359;BME280;37448;51.588;7.248;2023-05-23T05:43:49;101195.63;;;13.62;86.83
51359;BME280;37448;51.588;7.248;2023-05-23T05:45:50;101195.50;;;13.67;86.82
51359;BME280;37448;51.588;7.248;2023-05-23T05:47:50;101208.44;;;13.74;87.26
51359;BME280;37448;51.588;7.248;2023-05-23T05:49:53;101200.59;;;13.73;87.04
51359;BME280;37448;51.588;7.248;2023-05-23T05:51:53;101202.38;;;13.71;86.99
51359;BME280;37448;51.588;7.248;2023-05-23T05:53:54;101211.16;;;13.70;86.79
51359;BME280;37448;51.588;7.248;2023-05-23T05:55:54;101198.09;;;13.68;86.32
51359;BME280;37448;51.588;7.248;2023-05-23T05:57:54;101212.81;;;13.74;86.55
51359;BME280;37448;51.588;7.248;2023-05-23T05:59:56;101214.56;;;13.75;86.67
51359;BME280;37448;51.588;7.248;2023-05-23T06:01:59;101214.56;;;13.75;87.34
51359;BME280;37448;51.588;7.248;2023-05-23T06:03:59;101219.75;;;13.76;86.67
51359;BME280;37448;51.588;7.248;2023-05-23T06:06:00;101211.97;;;13.73;86.61
51359;BME280;37448;51.588;7.248;2023-05-23T06:08:00;101205.91;;;13.71;85.86
51359;BME280;37448;51.588;7.248;2023-05-23T06:10:01;101211.34;;;13.63;85.82
51359;BME280;37448;51.588;7.248;2023-05-23T06:12:02;101212.34;;;13.58;85.62
51359;BME280;37448;51.588;7.248;2023-05-23T06:14:02;101215.75;;;13.61;86.26
51359;BME280;37448;51.588;7.248;2023-05-23T06:16:04;101213.94;;;13.63;85.34
51359;BME280;37448;51.588;7.248;2023-05-23T06:18:05;101217.59;;;13.58;85.54
51359;BME280;37448;51.588;7.248;2023-05-23T06:20:06;101215.94;;;13.54;85.03
51359;BME280;37448;51.588;7.248;2023-05-23T06:22:08;101226.34;;;13.57;85.49
51359;BME280;37448;51.588;7.248;2023-05-23T06:24:09;101222.91;;;13.55;85.66
51359;BME280;37448;51.588;7.248;2023-05-23T06:26:09;101219.38;;;13.56;85.78
51359;BME280;37448;51.588;7.248;2023-05-23T06:28:10;101225.50;;;13.56;86.05
51359;BME280;37448;51.588;7.248;2023-05-23T06:30:11;101226.22;;;13.63;85.60
51359;BME280;37448;51.588;7.248;2023-05-23T06:32:11;101236.78;;;13.60;84.89
51359;BME280;37448;51.588;7.248;2023-05-23T06:34:12;101246.44;;;13.59;85.03
51359;BME280;37448;51.588;7.248;2023-05-23T06:36:12;101253.63;;;13.51;84.67
51359;BME280;37448;51.588;7.248;2023-05-23T06:38:13;101247.59;;;13.47;84.64
51359;BME280;37448;51.588;7.248;2023-05-23T06:40:13;101245.78;;;13.49;84.61
51359;BME280;37448;51.588;7.248;2023-05-23T06:42:14;101256.28;;;13.49;84.73
51359;BME280;37448;51.588;7.248;2023-05-23T06:44:39;101258.06;;;13.47;84.81
51359;BME280;37448;51.588;7.248;2023-05-23T06:46:41;101259.72;;;13.52;85.49
51359;BME280;37448;51.588;7.248;2023-05-23T06:48:42;101258.00;;;13.51;84.28
51359;BME280;37448;51.588;7.248;2023-05-23T06:50:42;101271.09;;;13.52;84.06
51359;BME280;37448;51.588;7.248;2023-05-23T06:52:44;101265.84;;;13.52;84.20
51359;BME280;37448;51.588;7.248;2023-05-23T06:54:46;101258.00;;;13.51;83.31
51359;BME280;37448;51.588;7.248;2023-05-23T06:56:46;101265.16;;;13.44;83.95
51359;BME280;37448;51.588;7.248;2023-05-23T06:58:47;101265.16;;;13.44;83.75
51359;BME280;37448;51.588;7.248;2023-05-23T07:00:47;101268.50;;;13.51;84.12
51359;BME280;37448;51.588;7.248;2023-05-23T07:02:54;101271.88;;;13.56;84.71
51359;BME280;37448;51.588;7.248;2023-05-23T07:04:55;101282.28;;;13.59;84.63
51359;BME280;37448;51.588;7.248;2023-05-23T07:07:15;101278.72;;;13.63;85.38
51359;BME280;37448;51.588;7.248;2023-05-23T07:09:17;101276.84;;;13.67;83.97
51359;BME280;37448;51.588;7.248;2023-05-23T07:11:20;101291.84;;;13.61;82.70
51359;BME280;37448;51.588;7.248;2023-05-23T07:13:26;101289.25;;;13.60;82.69
51359;BME280;37448;51.588;7.248;2023-05-23T07:15:26;101278.63;;;13.66;82.91
51359;BME280;37448;51.588;7.248;2023-05-23T07:17:35;101294.38;;;13.66;81.54
51359;BME280;37448;51.588;7.248;2023-05-23T07:19:36;101280.38;;;13.67;81.39
51359;BME280;37448;51.588;7.248;2023-05-23T07:21:37;101288.19;;;13.69;82.09
51359;BME280;37448;51.588;7.248;2023-05-23T07:23:39;101294.25;;;13.71;81.64
51359;BME280;37448;51.588;7.248;2023-05-23T07:25:40;101292.59;;;13.67;80.91
51359;BME280;37448;51.588;7.248;2023-05-23T07:27:46;101306.38;;;13.76;82.15
51359;BME280;37448;51.588;7.248;2023-05-23T07:29:46;101299.50;;;13.71;81.01
51359;BME280;37448;51.588;7.248;2023-05-23T07:31:47;101293.59;;;13.61;81.58
51359;BME280;37448;51.588;7.248;2023-05-23T07:33:48;101300.44;;;13.68;81.98
51359;BME280;37448;51.588;7.248;2023-05-23T07:35:55;101301.44;;;13.64;81.68
51359;BME280;37448;51.588;7.248;2023-05-23T07:37:56;101313.78;;;13.59;82.17
51359;BME280;37448;51.588;7.248;2023-05-23T07:39:57;101308.75;;;13.49;81.70
51359;BME280;37448;51.588;7.248;2023-05-23T07:41:57;101319.25;;;13.49;82.18
51359;BME280;37448;51.588;7.248;2023-05-23T07:43:58;101321.78;;;13.53;81.23
51359;BME280;37448;51.588;7.248;2023-05-23T07:45:58;101313.09;;;13.52;81.93
51359;BME280;37448;51.588;7.248;2023-05-23T07:47:59;101317.22;;;13.61;81.80
51359;BME280;37448;51.588;7.248;2023-05-23T07:49:59;101316.94;;;13.75;81.58
51359;BME280;37448;51.588;7.248;2023-05-23T07:52:02;101322.84;;;13.83;81.94
51359;BME280;37448;51.588;7.248;2023-05-23T07:54:06;101321.88;;;13.86;81.71
51359;BME280;37448;51.588;7.248;2023-05-23T07:56:06;101333.53;;;13.75;81.50
51359;BME280;37448;51.588;7.248;2023-05-23T07:58:10;101338.78;;;13.75;80.91
51359;BME280;37448;51.588;7.248;2023-05-23T08:00:11;101332.97;;;13.61;80.64
51359;BME280;37448;51.588;7.248;2023-05-23T08:02:18;101332.03;;;13.63;81.16
51359;BME280;37448;51.588;7.248;2023-05-23T08:04:19;101325.94;;;13.63;81.45
51359;BME280;37448;51.588;7.248;2023-05-23T08:06:24;101333.69;;;13.68;81.44
51359;BME280;37448;51.588;7.248;2023-05-23T08:08:25;101337.94;;;13.73;81.28
51359;BME280;37448;51.588;7.248;2023-05-23T08:10:26;101344.16;;;13.69;80.53
51359;BME280;37448;51.588;7.248;2023-05-23T08:12:33;101336.88;;;13.82;80.74
51359;BME280;37448;51.588;7.248;2023-05-23T08:14:40;101343.59;;;13.94;81.02
51359;BME280;37448;51.588;7.248;2023-05-23T08:16:52;101346.38;;;13.88;79.11
51359;BME280;37448;51.588;7.248;2023-05-23T08:18:56;101341.53;;;13.69;79.10
51359;BME280;37448;51.588;7.248;2023-05-23T08:20:56;101348.66;;;13.64;79.93
51359;BME280;37448;51.588;7.248;2023-05-23T08:23:00;101349.59;;;13.61;81.26
51359;BME280;37448;51.588;7.248;2023-05-23T08:25:00;101350.59;;;13.56;81.61
51359;BME280;37448;51.588;7.248;2023-05-23T08:27:03;101348.09;;;13.49;80.89
51359;BME280;37448;51.588;7.248;2023-05-23T08:29:06;101361.28;;;13.46;81.24
51359;BME280;37448;51.588;7.248;2023-05-23T08:31:08;101356.94;;;13.45;82.44
51359;BME280;37448;51.588;7.248;2023-05-23T08:33:09;101354.47;;;13.36;82.33
51359;BME280;37448;51.588;7.248;2023-05-23T08:35:11;101365.78;;;13.40;83.59
51359;BME280;37448;51.588;7.248;2023-05-23T08:37:13;101364.84;;;13.42;83.53
51359;BME280;37448;51.588;7.248;2023-05-23T08:39:14;101370.22;;;13.36;82.80
51359;BME280;37448;51.588;7.248;2023-05-23T08:41:25;101371.19;;;13.32;83.13
51359;BME280;37448;51.588;7.248;2023-05-23T08:43:33;101378.38;;;13.22;81.72
51359;BME280;37448;51.588;7.248;2023-05-23T08:45:33;101382.72;;;13.25;82.65
51359;BME280;37448;51.588;7.248;2023-05-23T08:47:42;101374.25;;;13.10;81.57
51359;BME280;37448;51.588;7.248;2023-05-23T08:49:46;101380.50;;;13.04;82.45
51359;BME280;37448;51.588;7.248;2023-05-23T08:51:50;101382.41;;;12.96;81.89
51359;BME280;37448;51.588;7.248;2023-05-23T08:53:54;101392.13;;;12.89;82.32
51359;BME280;37448;51.588;7.248;2023-05-23T08:55:58;101393.19;;;12.81;82.36
51359;BME280;37448;51.588;7.248;2023-05-23T08:58:07;101404.59;;;12.78;83.11
51359;BME280;37448;51.588;7.248;2023-05-23T09:00:18;101392.44;;;12.74;81.79
51359;BME280;37448;51.588;7.248;2023-05-23T09:02:19;101394.09;;;12.78;82.97
51359;BME280;37448;51.588;7.248;2023-05-23T09:04:22;101394.09;;;12.78;81.72
51359;BME280;37448;51.588;7.248;2023-05-23T09:06:29;101399.22;;;12.84;82.74
51359;BME280;37448;51.588;7.248;2023-05-23T09:08:32;101400.84;;;12.91;82.68
51359;BME280;37448;51.588;7.248;2023-05-23T09:10:33;101402.38;;;13.02;81.94
51359;BME280;37448;51.588;7.248;2023-05-23T09:12:35;101399.56;;;13.11;81.06
51359;BME280;37448;51.588;7.248;2023-05-23T09:14:37;101405.00;;;13.03;80.58
51359;BME280;37448;51.588;7.248;2023-05-23T09:16:45;101405.78;;;13.07;81.33
51359;BME280;37448;51.588;7.248;2023-05-23T09:18:46;101415.56;;;12.97;80.36
51359;BME280;37448;51.588;7.248;2023-05-23T09:20:49;101410.41;;;12.94;80.62
51359;BME280;37448;51.588;7.248;2023-05-23T09:22:50;101416.69;;;12.85;80.75
51359;BME280;37448;51.588;7.248;2023-05-23T09:24:53;101426.44;;;12.78;80.32
51359;BME280;37448;51.588;7.248;2023-05-23T09:26:54;101418.69;;;12.71;80.78
51359;BME280;37448;51.588;7.248;2023-05-23T09:28:57;101418.47;;;12.83;81.27
51359;BME280;37448;51.588;7.248;2023-05-23T09:31:02;101423.72;;;12.83;80.25
51359;BME280;37448;51.588;7.248;2023-05-23T09:33:04;101427.91;;;12.92;80.62
51359;BME280;37448;51.588;7.248;2023-05-23T09:35:05;101426.19;;;12.91;79.71
51359;BME280;37448;51.588;7.248;2023-05-23T09:37:06;101422.31;;;13.11;80.16
51359;BME280;37448;51.588;7.248;2023-05-23T09:39:10;101434.59;;;13.09;79.46
51359;BME280;37448;51.588;7.248;2023-05-23T09:41:11;101430.47;;;12.97;79.30
51359;BME280;37448;51.588;7.248;2023-05-23T09:43:16;101427.91;;;12.94;79.24
51359;BME280;37448;51.588;7.248;2023-05-23T09:45:16;101432.25;;;12.95;80.06
51359;BME280;37448;51.588;7.248;2023-05-23T09:47:17;101434.06;;;12.89;79.10
51359;BME280;37448;51.588;7.248;2023-05-23T09:49:18;101436.47;;;13.02;79.54
51359;BME280;37448;51.588;7.248;2023-05-23T09:51:21;101436.34;;;13.08;79.83
51359;BME280;37448;51.588;7.248;2023-05-23T09:53:22;101444.06;;;13.17;80.58
51359;BME280;37448;51.588;7.248;2023-05-23T09:55:22;101447.72;;;13.07;78.36
51359;BME280;37448;51.588;7.248;2023-05-23T09:57:23;101453.03;;;13.04;78.48
51359;BME280;37448;51.588;7.248;2023-05-23T09:59:27;101447.03;;;12.97;79.45
51359;BME280;37448;51.588;7.248;2023-05-23T10:01:29;101449.84;;;12.86;79.66
51359;BME280;37448;51.588;7.248;2023-05-23T10:03:33;101454.38;;;12.80;80.39
51359;BME280;37448;51.588;7.248;2023-05-23T10:05:46;101465.00;;;12.70;80.74
51359;BME280;37448;51.588;7.248;2023-05-23T10:07:46;101458.22;;;12.58;80.27
51359;BME280;37448;51.588;7.248;2023-05-23T10:09:53;101460.88;;;12.55;78.83
51359;BME280;37448;51.588;7.248;2023-05-23T10:14:37;101458.91;;;12.68;80.78
51359;BME280;37448;51.588;7.248;2023-05-23T10:16:58;101463.97;;;12.77;80.06
51359;BME280;37448;51.588;7.248;2023-05-23T10:19:05;101463.13;;;12.77;79.79
51359;BME280;37448;51.588;7.248;2023-05-23T10:21:10;101456.88;;;12.84;79.43
51359;BME280;37448;51.588;7.248;2023-05-23T10:23:11;101455.03;;;12.89;78.89
51359;BME280;37448;51.588;7.248;2023-05-23T10:25:12;101458.59;;;12.87;78.79
51359;BME280;37448;51.588;7.248;2023-05-23T10:27:14;101468.38;;;12.77;76.49
51359;BME280;37448;51.588;7.248;2023-05-23T10:29:15;101458.78;;;12.76;77.08
51359;BME280;37448;51.588;7.248;2023-05-23T10:31:16;101467.50;;;12.78;77.66
51359;BME280;37448;51.588;7.248;2023-05-23T10:33:17;101455.09;;;12.86;78.33
51359;BME280;37448;51.588;7.248;2023-05-23T10:37:34;101454.97;;;13.40;74.07
51359;BME280;37448;51.588;7.248;2023-05-23T10:41:56;101458.03;;;13.62;72.20
51359;BME280;37448;51.588;7.248;2023-05-23T10:46:19;101451.56;;;13.78;70.95
51359;BME280;37448;51.588;7.248;2023-05-23T10:48:34;101455.81;;;13.84;71.90
51359;BME280;37448;51.588;7.248;2023-05-23T10:50:35;101460.16;;;13.87;72.36
51359;BME280;37448;51.588;7.248;2023-05-23T10:52:40;101460.16;;;13.87;71.60
51359;BME280;37448;51.588;7.248;2023-05-23T10:54:43;101460.66;;;14.03;72.13